createdAt,value
2023-03-05T00:08:23.939Z,3.6
2023-03-05T00:14:33.109Z,3.5
2023-03-05T00:16:36.190Z,3.5
2023-03-05T00:22:48.530Z,3.6
2023-03-05T00:24:51.766Z,3.6
2023-03-05T00:25:54.681Z,3.5
2023-03-05T00:27:57.730Z,3.6
2023-03-05T00:30:00.971Z,3.5
2023-03-05T00:32:03.862Z,3.5
2023-03-05T00:34:10.129Z,3.5
2023-03-05T00:36:13.137Z,3.5
2023-03-05T00:38:16.181Z,3.6
2023-03-05T00:40:19.316Z,3.6
2023-03-05T00:42:22.260Z,3.5
2023-03-05T00:44:25.329Z,3.6
2023-03-05T00:46:28.383Z,3.5
2023-03-05T00:48:34.591Z,3.4
2023-03-05T00:50:37.637Z,3.4
2023-03-05T00:52:40.682Z,3.4
2023-03-05T00:54:43.714Z,3.4
2023-03-05T00:56:46.751Z,3.5
2023-03-05T01:00:52.844Z,3.5
2023-03-05T01:02:59.075Z,3.4
2023-03-05T01:05:02.162Z,3.4
2023-03-05T01:07:05.135Z,3.5
2023-03-05T01:09:08.189Z,3.4
2023-03-05T01:13:14.256Z,3.4
2023-03-05T01:15:17.290Z,3.5
2023-03-05T01:19:26.604Z,3.5
2023-03-05T01:21:29.644Z,3.5
2023-03-05T01:22:32.767Z,3.5
2023-03-05T01:24:35.824Z,3.5
2023-03-05T01:26:38.860Z,3.5
2023-03-05T01:28:41.896Z,3.4
2023-03-05T01:30:48.141Z,3.5
2023-03-05T01:32:51.180Z,3.5
2023-03-05T01:34:54.233Z,3.5
2023-03-05T01:36:57.260Z,3.5
2023-03-05T01:39:00.301Z,3.5
2023-03-05T01:45:12.655Z,3.5
2023-03-05T01:51:23.368Z,3.5
2023-03-05T01:53:26.368Z,3.5
2023-03-05T01:57:32.457Z,3.4
2023-03-05T02:01:41.766Z,3.5
2023-03-05T02:03:44.828Z,3.5
2023-03-05T02:11:57.010Z,3.6
2023-03-05T02:16:06.369Z,3.5
2023-03-05T02:18:09.364Z,3.5
2023-03-05T02:20:31.350Z,3.4
2023-03-05T02:22:34.380Z,3.4
2023-03-05T02:24:37.434Z,3.5
2023-03-05T02:26:43.684Z,3.5
2023-03-05T02:28:46.740Z,3.4
2023-03-05T02:30:49.766Z,3.4
2023-03-05T02:32:52.810Z,3.4
2023-03-05T02:34:55.840Z,3.4
2023-03-05T02:36:58.871Z,3.4
2023-03-05T02:39:01.928Z,3.4
2023-03-05T02:41:08.176Z,3.4
2023-03-05T02:43:11.223Z,3.4
2023-03-05T02:45:14.260Z,3.4
2023-03-05T02:47:17.287Z,3.3
2023-03-05T02:49:20.331Z,3.3
2023-03-05T02:51:23.462Z,3.3
2023-03-05T02:53:26.356Z,3.3
2023-03-05T02:55:32.606Z,3.3
2023-03-05T02:57:35.640Z,3.3
2023-03-05T02:59:38.737Z,3.4
2023-03-05T03:01:41.770Z,3.4
2023-03-05T03:03:44.746Z,3.4
2023-03-05T03:05:47.779Z,3.4
2023-03-05T03:07:50.825Z,3.3
2023-03-05T03:09:57.092Z,3.4
2023-03-05T03:12:00.140Z,3.4
2023-03-05T03:14:03.172Z,3.4
2023-03-05T03:15:06.279Z,3.4
2023-03-05T03:17:09.313Z,3.4
2023-03-05T03:19:12.346Z,3.4
2023-03-05T03:21:15.389Z,3.4
2023-03-05T03:23:21.615Z,3.4
2023-03-05T03:25:24.645Z,3.3
2023-03-05T03:27:27.718Z,3.3
2023-03-05T03:29:30.785Z,3.4
2023-03-05T03:31:33.819Z,3.3
2023-03-05T03:33:36.869Z,3.2
2023-03-05T03:35:39.941Z,3.2
2023-03-05T03:37:46.176Z,3.2
2023-03-05T03:41:52.231Z,3.3
2023-03-05T03:43:55.263Z,3.2
2023-03-05T03:45:58.351Z,3.2
2023-03-05T03:48:01.366Z,3.2
2023-03-05T03:52:10.658Z,3.2
2023-03-05T03:54:13.687Z,3.2
2023-03-05T03:56:16.740Z,3.2
2023-03-05T03:58:19.765Z,3.2
2023-03-05T04:00:22.814Z,3.2
2023-03-05T04:02:25.869Z,3.2
2023-03-05T04:04:28.965Z,3.3
2023-03-05T04:06:35.127Z,3.2
2023-03-05T04:08:38.193Z,3.2
2023-03-05T04:10:41.216Z,3.2
2023-03-05T04:11:44.341Z,3.1
2023-03-05T04:13:47.652Z,3.2
2023-03-05T04:15:50.693Z,3.1
2023-03-05T04:17:53.450Z,3.2
2023-03-05T04:19:59.711Z,3.2
2023-03-05T04:24:05.882Z,3.2
2023-03-05T04:26:08.813Z,3.1
2023-03-05T04:28:11.867Z,3.2
2023-03-05T04:30:14.896Z,3.2
2023-03-05T04:32:17.939Z,3.2
2023-03-05T04:34:24.190Z,3.1
2023-03-05T04:36:27.197Z,3.1
2023-03-05T04:38:30.237Z,3
2023-03-05T04:40:33.280Z,3.1
2023-03-05T04:42:36.294Z,3
2023-03-05T04:44:39.355Z,3.1
2023-03-05T04:46:42.419Z,3.1
2023-03-05T04:48:48.642Z,3.2
2023-03-05T04:50:51.655Z,3.1
2023-03-05T04:54:57.716Z,3.1
2023-03-05T05:01:06.821Z,3.1
2023-03-05T05:05:16.114Z,3
2023-03-05T05:08:22.241Z,3
2023-03-05T05:10:25.277Z,3.1
2023-03-05T05:12:28.383Z,3
2023-03-05T05:14:31.333Z,3
2023-03-05T05:16:37.622Z,3
2023-03-05T05:18:40.594Z,3
2023-03-05T05:20:43.637Z,2.9
2023-03-05T05:22:46.654Z,2.9
2023-03-05T05:24:49.705Z,3
2023-03-05T05:26:52.723Z,2.9
2023-03-05T05:28:55.751Z,2.9
2023-03-05T05:37:11.090Z,2.8
2023-03-05T05:39:14.130Z,2.7
2023-03-05T05:41:17.167Z,2.8
2023-03-05T05:43:20.181Z,2.7
2023-03-05T05:45:26.546Z,2.8
2023-03-05T05:47:29.428Z,2.6
2023-03-05T05:49:32.487Z,2.8
2023-03-05T05:51:35.493Z,2.7
2023-03-05T05:53:38.519Z,2.8
2023-03-05T05:55:41.552Z,2.8
2023-03-05T05:57:44.868Z,2.7
2023-03-05T06:03:57.140Z,2.7
2023-03-05T06:06:21.411Z,2.6
2023-03-05T06:08:24.438Z,2.7
2023-03-05T06:10:27.451Z,2.6
2023-03-05T06:12:33.688Z,2.6
2023-03-05T06:14:36.700Z,2.6
2023-03-05T06:16:39.869Z,2.7
2023-03-05T06:20:45.768Z,2.7
2023-03-05T06:26:58.051Z,2.7
2023-03-05T06:29:01.083Z,2.8
2023-03-05T06:33:07.124Z,2.7
2023-03-05T06:35:10.135Z,2.9
2023-03-05T06:37:13.157Z,2.8
2023-03-05T06:39:16.167Z,2.8
2023-03-05T06:41:22.419Z,2.9
2023-03-05T06:45:28.477Z,2.8
2023-03-05T06:47:31.489Z,2.9
2023-03-05T06:51:37.544Z,2.8
2023-03-05T06:53:40.557Z,2.9
2023-03-05T06:55:46.794Z,2.9
2023-03-05T06:57:49.819Z,2.9
2023-03-05T06:59:52.842Z,2.9
2023-03-05T07:00:55.971Z,3.1
2023-03-05T07:02:58.998Z,3
2023-03-05T07:05:02.006Z,3.1
2023-03-05T07:13:17.295Z,3.2
2023-03-05T07:15:20.318Z,3.1
2023-03-05T07:19:26.408Z,3.1
2023-03-05T07:23:35.659Z,3.1
2023-03-05T07:25:38.667Z,3.2
2023-03-05T07:38:00.129Z,3.3
2023-03-05T07:42:06.201Z,3.4
2023-03-05T07:44:09.156Z,3.3
2023-03-05T07:46:13.803Z,3.4
2023-03-05T07:48:16.785Z,3.5
2023-03-05T07:52:26.047Z,3.5
2023-03-05T07:59:38.282Z,3.6
2023-03-05T08:09:56.685Z,3.9
2023-03-05T08:11:59.716Z,4
2023-03-05T08:16:05.884Z,4.1
2023-03-05T08:18:08.822Z,4.2
2023-03-05T08:20:15.088Z,4.5
2023-03-05T08:22:18.124Z,4.4
2023-03-05T08:24:21.167Z,4.5
2023-03-05T08:26:24.218Z,4.5
2023-03-05T08:28:27.233Z,4.7
2023-03-05T08:38:45.706Z,4.3
2023-03-05T08:40:48.754Z,4.5
2023-03-05T08:46:57.972Z,5.2
2023-03-05T08:49:04.160Z,5.6
2023-03-05T08:51:07.224Z,5.9
2023-03-05T08:53:10.289Z,6.2
2023-03-05T08:56:16.510Z,6.4
2023-03-05T08:58:19.596Z,5.9
2023-03-05T09:02:28.966Z,6
2023-03-05T09:04:31.992Z,5.7
2023-03-05T09:06:35.055Z,5.7
2023-03-05T09:08:38.155Z,5.6
2023-03-05T09:10:41.210Z,5.5
2023-03-05T09:12:44.296Z,5.5
2023-03-05T09:14:47.369Z,5.9
2023-03-05T09:16:53.655Z,6.4
2023-03-05T09:18:56.762Z,6.3
2023-03-05T09:25:06.017Z,5.8
2023-03-05T09:27:09.088Z,5.7
2023-03-05T09:29:12.183Z,5.6
2023-03-05T09:31:18.526Z,6.6
2023-03-05T09:33:21.601Z,7
2023-03-05T09:35:24.699Z,7.2
2023-03-05T09:37:27.763Z,6.9
2023-03-05T09:41:33.937Z,6.5
2023-03-05T09:43:37.028Z,6.8
2023-03-05T09:45:43.445Z,6.8
2023-03-05T09:47:46.460Z,7.1
2023-03-05T09:49:49.506Z,7.8
2023-03-05T09:52:19.310Z,7.7
2023-03-05T09:54:22.416Z,7.5
2023-03-05T09:56:25.555Z,7.4
2023-03-05T09:58:31.868Z,6.3
2023-03-05T10:00:34.977Z,6.3
2023-03-05T10:02:38.089Z,6.6
2023-03-05T10:04:41.223Z,6.6
2023-03-05T10:06:44.331Z,6.9
2023-03-05T10:08:47.442Z,6.7
2023-03-05T10:10:50.593Z,6.6
2023-03-05T10:12:56.903Z,6.6
2023-03-05T10:15:00.046Z,6.6
2023-03-05T10:17:03.172Z,6.9
2023-03-05T10:19:06.282Z,7
2023-03-05T10:21:09.437Z,6.7
2023-03-05T10:23:12.550Z,6.5
2023-03-05T10:25:15.750Z,6.5
2023-03-05T10:27:22.069Z,6.3
2023-03-05T10:29:25.104Z,6.3
2023-03-05T10:31:28.265Z,6.2
2023-03-05T10:33:33.279Z,6.2
2023-03-05T10:35:35.201Z,6.3
2023-03-05T10:37:38.150Z,6.2
2023-03-05T10:39:41.141Z,6.3
2023-03-05T10:41:47.220Z,6.5
2023-03-05T10:43:50.644Z,6.5
2023-03-05T10:45:54.237Z,6.4
2023-03-05T10:46:56.627Z,6.4
2023-03-05T10:49:06.884Z,6.6
2023-03-05T10:51:03.224Z,6.6
2023-03-05T10:53:05.944Z,6.5
2023-03-05T10:55:14.268Z,5.2
2023-03-05T11:01:21.348Z,4.9
2023-03-05T11:03:24.418Z,4.8
2023-03-05T11:05:27.542Z,4.8
2023-03-05T11:07:30.631Z,4.7
2023-03-05T11:09:36.934Z,4.8
2023-03-05T11:11:40.043Z,4.9
2023-03-05T11:13:43.112Z,5
2023-03-05T11:15:47.039Z,5.1
2023-03-05T11:17:49.276Z,5.2
2023-03-05T11:19:52.363Z,5.4
2023-03-05T11:21:55.459Z,5.3
2023-03-05T11:24:01.718Z,5.2
2023-03-05T11:26:04.814Z,5
2023-03-05T11:28:07.883Z,5.1
2023-03-05T11:30:11.000Z,5
2023-03-05T11:32:14.092Z,4.9
2023-03-05T11:34:17.137Z,5
2023-03-05T11:36:20.233Z,4.8
2023-03-05T11:38:26.530Z,4.9
2023-03-05T11:40:29.614Z,4.9
2023-03-05T11:42:32.678Z,5.1
2023-03-05T11:43:35.819Z,5.2
2023-03-05T11:45:38.900Z,5.2
2023-03-05T11:47:41.980Z,5.6
2023-03-05T11:49:45.087Z,5.5
2023-03-05T11:51:51.356Z,5.8
2023-03-05T11:53:54.442Z,5.9
2023-03-05T11:55:57.546Z,6.1
2023-03-05T11:58:00.634Z,6.1
2023-03-05T12:00:03.753Z,6.4
2023-03-05T12:02:06.831Z,6.4
2023-03-05T12:04:10.042Z,6.6
2023-03-05T12:06:16.220Z,6.7
2023-03-05T12:08:19.326Z,6.6
2023-03-05T12:10:22.456Z,7
2023-03-05T12:14:28.608Z,7.9
2023-03-05T12:16:31.879Z,7.9
2023-03-05T12:20:41.461Z,7.6
2023-03-05T12:22:44.599Z,7.5
2023-03-05T12:26:50.547Z,6.2
2023-03-05T12:28:53.674Z,6
2023-03-05T12:30:56.791Z,6
2023-03-05T12:35:06.269Z,6
2023-03-05T12:37:09.370Z,5.8
2023-03-05T12:39:12.467Z,5.8
2023-03-05T12:40:15.650Z,5.9
2023-03-05T12:42:18.767Z,5.9
2023-03-05T12:44:21.886Z,5.9
2023-03-05T12:46:25.069Z,6
2023-03-05T12:48:31.349Z,6
2023-03-05T12:50:34.415Z,6.1
2023-03-05T12:52:37.507Z,6
2023-03-05T12:54:40.630Z,5.9
2023-03-05T12:56:43.726Z,6
2023-03-05T12:58:46.811Z,6.1
2023-03-05T13:00:49.953Z,6.3
2023-03-05T13:02:56.271Z,6.1
2023-03-05T13:04:59.317Z,6.4
2023-03-05T13:07:02.437Z,6.7
2023-03-05T13:09:05.551Z,6.9
2023-03-05T13:11:08.645Z,6.9
2023-03-05T13:13:11.738Z,7
2023-03-05T13:15:14.859Z,7.4
2023-03-05T13:17:21.158Z,7.4
2023-03-05T13:19:24.231Z,7.6
2023-03-05T13:21:27.336Z,8.1
2023-03-05T13:23:30.493Z,8.2
2023-03-05T13:25:33.559Z,9.1
2023-03-05T13:27:36.701Z,9
2023-03-05T13:29:39.822Z,9.4
2023-03-05T13:31:46.252Z,9.1
2023-03-05T13:33:49.434Z,8.6
2023-03-05T13:35:53.986Z,8
2023-03-05T13:38:22.230Z,7.5
2023-03-05T13:40:26.941Z,7.5
2023-03-05T13:44:36.456Z,7.3
2023-03-05T13:46:39.547Z,7.1
2023-03-05T13:48:42.748Z,7.2
2023-03-05T13:50:45.818Z,7.4
2023-03-05T13:52:48.966Z,7.6
2023-03-05T13:54:52.099Z,7.6
2023-03-05T13:56:55.229Z,7.3
2023-03-05T13:59:01.570Z,7.4
2023-03-05T14:01:04.798Z,7.1
2023-03-05T14:03:07.875Z,7.1
2023-03-05T14:05:11.078Z,6.9
2023-03-05T14:07:14.497Z,7.1
2023-03-05T14:09:17.580Z,7.1
2023-03-05T14:11:20.393Z,7
2023-03-05T14:13:26.724Z,7.2
2023-03-05T14:15:29.898Z,7.2
2023-03-05T14:17:32.969Z,7.3
2023-03-05T14:19:36.106Z,7.5
2023-03-05T14:21:39.241Z,7.4
2023-03-05T14:23:42.375Z,7.3
2023-03-05T14:25:45.507Z,7.3
2023-03-05T14:27:51.842Z,7.3
2023-03-05T14:29:54.989Z,7.4
2023-03-05T14:31:58.209Z,7.7
2023-03-05T14:33:01.277Z,7.8
2023-03-05T14:35:04.448Z,7.9
2023-03-05T14:41:17.006Z,7.5
2023-03-05T14:45:23.259Z,7.4
2023-03-05T14:51:32.642Z,7.5
2023-03-05T14:55:42.152Z,7.7
2023-03-05T14:57:45.250Z,7.8
2023-03-05T14:59:48.369Z,7.8
2023-03-05T15:01:51.583Z,7.7
2023-03-05T15:03:54.623Z,8
2023-03-05T15:05:57.743Z,7.7
2023-03-05T15:12:10.337Z,7.6
2023-03-05T15:14:13.475Z,7.6
2023-03-05T15:24:32.337Z,7.4
2023-03-05T15:26:35.448Z,7.3
2023-03-05T15:28:38.576Z,7.4
2023-03-05T15:29:41.739Z,7.3
2023-03-05T15:31:44.853Z,7.3
2023-03-05T15:33:47.987Z,7.1
2023-03-05T15:35:51.187Z,7.1
2023-03-05T15:37:57.447Z,7.2
2023-03-05T15:40:00.558Z,7.2
2023-03-05T15:42:05.923Z,7.2
2023-03-05T15:44:06.845Z,8.2
2023-03-05T15:46:10.055Z,9.3
2023-03-05T15:48:13.049Z,10.2
2023-03-05T15:52:22.516Z,10.3
2023-03-05T15:54:25.664Z,9.8
2023-03-05T16:00:35.088Z,10.4
2023-03-05T16:08:50.885Z,7.6
2023-03-05T16:10:54.032Z,7.6
2023-03-05T16:12:57.240Z,7.5
2023-03-05T16:17:03.480Z,7.2
2023-03-05T16:19:06.622Z,7.1
2023-03-05T16:21:12.947Z,7.1
2023-03-05T16:23:16.103Z,7
2023-03-05T16:25:19.233Z,7
2023-03-05T16:26:22.402Z,6.9
2023-03-05T16:28:25.558Z,6.9
2023-03-05T16:30:28.708Z,6.8
2023-03-05T16:32:31.894Z,6.7
2023-03-05T16:34:38.168Z,6.5
2023-03-05T16:36:41.304Z,6.4
2023-03-05T16:38:44.423Z,6.4
2023-03-05T16:41:06.925Z,6.3
2023-03-05T16:46:56.968Z,6.1
2023-03-05T16:49:03.200Z,6.1
2023-03-05T16:51:06.349Z,6
2023-03-05T16:53:09.470Z,5.9
2023-03-05T16:55:12.563Z,6
2023-03-05T16:57:15.681Z,6
2023-03-05T16:59:18.785Z,6.1
2023-03-05T17:01:22.011Z,6.1
2023-03-05T17:03:28.356Z,6
2023-03-05T17:05:31.353Z,6.1
2023-03-05T17:07:34.473Z,6
2023-03-05T17:09:37.535Z,6.1
2023-03-05T17:11:40.665Z,5.9
2023-03-05T17:13:43.776Z,5.9
2023-03-05T17:15:46.865Z,5.9
2023-03-05T17:17:53.169Z,5.9
2023-03-05T17:21:59.378Z,5.9
2023-03-05T17:24:29.241Z,5.8
2023-03-05T17:26:32.342Z,5.8
2023-03-05T17:28:35.423Z,5.8
2023-03-05T17:30:41.736Z,5.8
2023-03-05T17:32:44.920Z,5.8
2023-03-05T17:34:47.926Z,5.8
2023-03-05T17:36:51.053Z,5.8
2023-03-05T17:38:54.170Z,5.7
2023-03-05T17:40:57.249Z,5.7
2023-03-05T17:43:00.345Z,5.7
2023-03-05T17:45:06.659Z,5.6
2023-03-05T17:47:09.740Z,5.7
2023-03-05T17:49:12.988Z,5.6
2023-03-05T17:51:15.932Z,5.6
2023-03-05T17:53:19.021Z,5.6
2023-03-05T17:55:22.163Z,5.6
2023-03-05T17:57:25.219Z,5.6
2023-03-05T17:59:31.558Z,5.6
2023-03-05T18:01:34.698Z,5.6
2023-03-05T18:03:37.750Z,5.5
2023-03-05T18:05:40.839Z,5.6
2023-03-05T18:07:43.953Z,5.6
2023-03-05T18:09:47.062Z,5.4
2023-03-05T18:11:50.191Z,5.5
2023-03-05T18:13:56.466Z,5.5
2023-03-05T18:15:59.556Z,5.4
2023-03-05T18:18:02.671Z,5.4
2023-03-05T18:23:12.038Z,5.4
2023-03-05T18:25:15.110Z,5.4
2023-03-05T18:27:21.427Z,5.4
2023-03-05T18:29:24.516Z,5.4
2023-03-05T18:31:27.659Z,5.4
2023-03-05T18:33:30.727Z,5.3
2023-03-05T18:35:33.870Z,5.4
2023-03-05T18:37:36.906Z,5.5
2023-03-05T18:41:46.301Z,5.3
2023-03-05T18:43:49.397Z,5.3
2023-03-05T18:45:52.595Z,5.2
2023-03-05T18:47:55.590Z,5.2
2023-03-05T18:49:58.704Z,4.9
2023-03-05T18:52:01.797Z,4.6
2023-03-05T18:54:04.902Z,4.4
2023-03-05T18:58:14.320Z,4
2023-03-05T19:00:17.380Z,4
2023-03-05T19:02:20.459Z,4
2023-03-05T19:04:23.589Z,3.9
2023-03-05T19:06:26.658Z,3.9
2023-03-05T19:10:36.018Z,3.8
2023-03-05T19:14:42.142Z,3.8
2023-03-05T19:17:48.352Z,3.8
2023-03-05T19:19:51.427Z,3.8
2023-03-05T19:21:54.493Z,4
2023-03-05T19:24:00.745Z,3.9
2023-03-05T19:26:03.803Z,4
2023-03-05T19:28:06.876Z,3.9
2023-03-05T19:30:09.928Z,3.9
2023-03-05T19:32:13.064Z,4
2023-03-05T19:34:16.154Z,4
2023-03-05T19:38:26.918Z,4
2023-03-05T19:40:29.912Z,3.9
2023-03-05T19:42:32.948Z,3.9
2023-03-05T19:44:36.018Z,3.9
2023-03-05T19:48:42.150Z,4.1
2023-03-05T19:50:45.198Z,4
2023-03-05T19:54:54.479Z,4
2023-03-05T20:01:03.667Z,4
2023-03-05T20:11:22.114Z,3.9
2023-03-05T20:12:25.248Z,3.9
2023-03-05T20:14:28.301Z,3.8
2023-03-05T20:16:31.415Z,3.9
2023-03-05T20:18:34.398Z,3.8
2023-03-05T20:20:40.668Z,3.8
2023-03-05T20:24:46.775Z,3.7
2023-03-05T20:26:49.833Z,3.7
2023-03-05T20:28:52.878Z,3.7
2023-03-05T20:30:56.034Z,3.7
2023-03-05T20:35:05.227Z,3.8
2023-03-05T20:37:08.265Z,3.8
2023-03-05T20:39:11.327Z,3.9
2023-03-05T20:41:14.362Z,3.8
2023-03-05T20:43:17.439Z,3.9
2023-03-05T20:47:23.556Z,3.8
2023-03-05T20:49:29.794Z,3.7
2023-03-05T20:51:32.849Z,3.7
2023-03-05T20:53:35.889Z,3.6
2023-03-05T20:57:42.025Z,3.7
2023-03-05T20:59:45.046Z,3.7
2023-03-05T21:01:48.149Z,3.7
2023-03-05T21:03:54.351Z,3.7
2023-03-05T21:05:57.415Z,3.7
2023-03-05T21:08:00.452Z,3.7
2023-03-05T21:10:30.345Z,3.7
2023-03-05T21:12:33.411Z,3.7
2023-03-05T21:14:36.441Z,3.7
2023-03-05T21:16:42.761Z,3.7
2023-03-05T21:18:45.771Z,3.8
2023-03-05T21:20:48.838Z,3.7
2023-03-05T21:22:51.882Z,3.6
2023-03-05T21:24:54.935Z,3.7
2023-03-05T21:26:57.968Z,3.6
2023-03-05T21:29:01.020Z,3.6
2023-03-05T21:31:07.272Z,3.6
2023-03-05T21:33:10.354Z,3.7
2023-03-05T21:35:13.365Z,3.5
2023-03-05T21:37:16.419Z,3.6
2023-03-05T21:39:19.492Z,3.6
2023-03-05T21:41:22.488Z,3.5
2023-03-05T21:43:25.556Z,3.5
2023-03-05T21:45:31.819Z,3.5
2023-03-05T21:47:34.864Z,3.5
2023-03-05T21:49:37.895Z,3.6
2023-03-05T21:53:43.987Z,3.5
2023-03-05T21:55:47.017Z,3.6
2023-03-05T21:57:50.037Z,3.5
2023-03-05T21:59:56.321Z,3.6
2023-03-05T22:01:59.363Z,3.5
2023-03-05T22:04:02.480Z,3.5
2023-03-05T22:09:11.583Z,3.5
2023-03-05T22:15:23.922Z,3.4
2023-03-05T22:17:26.962Z,3.4
2023-03-05T22:19:29.995Z,3.3
2023-03-05T22:21:33.058Z,3.3
2023-03-05T22:23:36.075Z,3.4
2023-03-05T22:25:39.124Z,3.4
2023-03-05T22:27:45.400Z,3.3
2023-03-05T22:29:48.448Z,3.3
2023-03-05T22:31:51.483Z,3.4
2023-03-05T22:33:54.543Z,3.3
2023-03-05T22:35:57.618Z,3.2
2023-03-05T22:38:00.592Z,3.3
2023-03-05T22:40:03.661Z,3.3
2023-03-05T22:42:09.887Z,3.2
2023-03-05T22:44:12.976Z,3.2
2023-03-05T22:46:16.008Z,3.2
2023-03-05T22:48:19.024Z,3.2
2023-03-05T22:50:22.057Z,3.2
2023-03-05T22:52:25.128Z,3.2
2023-03-05T22:54:28.132Z,3.1
2023-03-05T22:56:34.362Z,3.1
2023-03-05T22:58:37.389Z,3
2023-03-05T23:00:40.442Z,3
2023-03-05T23:01:43.559Z,3
2023-03-05T23:03:46.673Z,3
2023-03-05T23:05:49.601Z,3
2023-03-05T23:07:52.655Z,2.9
2023-03-05T23:09:58.896Z,2.9
2023-03-05T23:12:01.932Z,2.9
2023-03-05T23:14:04.943Z,2.8
2023-03-05T23:16:08.088Z,2.8
2023-03-05T23:18:11.016Z,2.7
2023-03-05T23:20:14.035Z,2.7
2023-03-05T23:22:17.087Z,2.6
2023-03-05T23:24:23.319Z,2.7
2023-03-05T23:26:26.332Z,2.7
2023-03-05T23:28:29.349Z,2.7
2023-03-05T23:30:32.377Z,2.7
2023-03-05T23:34:38.431Z,2.5
2023-03-05T23:36:41.437Z,2.6
2023-03-05T23:38:47.664Z,2.4
2023-03-05T23:46:59.745Z,2.5
2023-03-05T23:53:11.987Z,2.3
2023-03-05T23:57:17.993Z,2.3
2023-03-05T23:58:21.101Z,2.4
